sensor_id;sensor_type;location;lat;lon;timestamp;pressure;altitude;pressure_sealevel;temperature;humidity
22753;BME280;11543;43.144;24.684;2023-01-16T00:01:17;98731.25;;;5.22;81.13
22753;BME280;11543;43.144;24.684;2023-01-16T00:03:42;98711.69;;;5.23;80.68
22753;BME280;11543;43.144;24.684;2023-01-16T00:06:08;98731.34;;;5.32;80.54
22753;BME280;11543;43.144;24.684;2023-01-16T00:08:33;98727.75;;;5.10;81.30
22753;BME280;11543;43.144;24.684;2023-01-16T00:10:59;98719.03;;;5.08;81.33
22753;BME280;11543;43.144;24.684;2023-01-16T00:13:24;98741.16;;;5.31;81.38
22753;BME280;11543;43.144;24.684;2023-01-16T00:15:51;98746.66;;;5.51;80.98
22753;BME280;11543;43.144;24.684;2023-01-16T00:18:17;98741.69;;;5.57;80.61
22753;BME280;11543;43.144;24.684;2023-01-16T00:20:43;98742.59;;;5.67;79.91
22753;BME280;11543;43.144;24.684;2023-01-16T00:23:10;98738.47;;;5.74;79.66
22753;BME280;11543;43.144;24.684;2023-01-16T00:25:40;98724.50;;;5.61;79.88
22753;BME280;11543;43.144;24.684;2023-01-16T00:28:07;98707.13;;;5.46;79.28
22753;BME280;11543;43.144;24.684;2023-01-16T00:30:32;98716.53;;;5.50;79.06
22753;BME280;11543;43.144;24.684;2023-01-16T00:32:58;98718.53;;;5.37;79.39
22753;BME280;11543;43.144;24.684;2023-01-16T00:35:23;98725.97;;;5.54;79.10
22753;BME280;11543;43.144;24.684;2023-01-16T00:37:51;98709.09;;;5.33;78.62
22753;BME280;11543;43.144;24.684;2023-01-16T00:40:16;98705.72;;;5.20;78.88
22753;BME280;11543;43.144;24.684;2023-01-16T00:42:42;98705.72;;;5.20;79.93
22753;BME280;11543;43.144;24.684;2023-01-16T00:45:08;98709.47;;;5.28;80.12
22753;BME280;11543;43.144;24.684;2023-01-16T00:47:33;98703.06;;;5.31;79.61
22753;BME280;11543;43.144;24.684;2023-01-16T00:49:59;98718.03;;;5.43;79.63
22753;BME280;11543;43.144;24.684;2023-01-16T00:52:24;98707.63;;;5.40;79.59
22753;BME280;11543;43.144;24.684;2023-01-16T00:54:49;98713.66;;;5.42;79.43
22753;BME280;11543;43.144;24.684;2023-01-16T00:57:15;98709.31;;;5.41;79.48
22753;BME280;11543;43.144;24.684;2023-01-16T00:59:40;98709.31;;;5.41;79.72
22753;BME280;11543;43.144;24.684;2023-01-16T01:02:06;98711.84;;;5.42;79.00
22753;BME280;11543;43.144;24.684;2023-01-16T01:04:31;98706.19;;;5.36;78.98
22753;BME280;11543;43.144;24.684;2023-01-16T01:06:56;98707.38;;;5.43;78.68
22753;BME280;11543;43.144;24.684;2023-01-16T01:09:22;98707.38;;;5.43;79.03
22753;BME280;11543;43.144;24.684;2023-01-16T01:11:47;98717.00;;;5.55;79.23
22753;BME280;11543;43.144;24.684;2023-01-16T01:14:13;98713.88;;;5.50;78.99
22753;BME280;11543;43.144;24.684;2023-01-16T01:16:38;98687.34;;;5.28;78.92
22753;BME280;11543;43.144;24.684;2023-01-16T01:19:05;98673.72;;;5.21;78.60
22753;BME280;11543;43.144;24.684;2023-01-16T01:21:31;98713.53;;;5.43;78.59
22753;BME280;11543;43.144;24.684;2023-01-16T01:23:56;98706.66;;;5.41;78.52
22753;BME280;11543;43.144;24.684;2023-01-16T01:26:22;98710.50;;;5.48;78.17
22753;BME280;11543;43.144;24.684;2023-01-16T01:28:47;98675.03;;;5.27;78.51
22753;BME280;11543;43.144;24.684;2023-01-16T01:31:13;98698.44;;;5.44;78.39
22753;BME280;11543;43.144;24.684;2023-01-16T01:33:39;98696.03;;;5.41;78.40
22753;BME280;11543;43.144;24.684;2023-01-16T01:36:05;98701.63;;;5.27;78.29
22753;BME280;11543;43.144;24.684;2023-01-16T01:38:32;98691.00;;;5.04;78.63
22753;BME280;11543;43.144;24.684;2023-01-16T01:40:58;98696.97;;;4.86;77.85
22753;BME280;11543;43.144;24.684;2023-01-16T01:43:50;98698.09;;;4.61;77.24
22753;BME280;11543;43.144;24.684;2023-01-16T01:48:54;98683.91;;;4.27;78.58
22753;BME280;11543;43.144;24.684;2023-01-16T01:51:37;98692.03;;;4.36;79.66
22753;BME280;11543;43.144;24.684;2023-01-16T01:54:25;98695.91;;;4.43;80.32
22753;BME280;11543;43.144;24.684;2023-01-16T01:56:59;98679.84;;;4.56;81.22
22753;BME280;11543;43.144;24.684;2023-01-16T01:59:32;98674.41;;;4.69;81.54
22753;BME280;11543;43.144;24.684;2023-01-16T02:02:01;98685.97;;;4.90;81.26
22753;BME280;11543;43.144;24.684;2023-01-16T02:04:31;98681.63;;;4.89;81.09
22753;BME280;11543;43.144;24.684;2023-01-16T02:07:09;98681.38;;;4.92;80.89
22753;BME280;11543;43.144;24.684;2023-01-16T02:09:37;98667.59;;;4.87;81.05
22753;BME280;11543;43.144;24.684;2023-01-16T02:12:08;98688.09;;;5.07;80.58
22753;BME280;11543;43.144;24.684;2023-01-16T02:14:37;98664.94;;;4.98;79.98
22753;BME280;11543;43.144;24.684;2023-01-16T02:17:09;98656.56;;;5.03;80.23
22753;BME280;11543;43.144;24.684;2023-01-16T02:47:15;98671.06;;;5.10;78.42
22753;BME280;11543;43.144;24.684;2023-01-16T02:52:16;98656.09;;;4.98;79.35
22753;BME280;11543;43.144;24.684;2023-01-16T02:54:56;98661.06;;;5.02;79.26
22753;BME280;11543;43.144;24.684;2023-01-16T02:57:27;98643.78;;;4.97;78.97
22753;BME280;11543;43.144;24.684;2023-01-16T02:59:56;98649.56;;;5.02;79.13
22753;BME280;11543;43.144;24.684;2023-01-16T03:02:22;98659.16;;;4.82;78.52
22753;BME280;11543;43.144;24.684;2023-01-16T03:04:50;98638.19;;;4.45;78.59
22753;BME280;11543;43.144;24.684;2023-01-16T03:07:54;98660.06;;;4.38;78.60
22753;BME280;11543;43.144;24.684;2023-01-16T03:13:15;98648.31;;;4.18;80.14
22753;BME280;11543;43.144;24.684;2023-01-16T03:16:02;98643.72;;;4.31;81.33
22753;BME280;11543;43.144;24.684;2023-01-16T03:18:52;98641.44;;;4.49;80.90
22753;BME280;11543;43.144;24.684;2023-01-16T03:32:56;98624.72;;;4.80;79.36
22753;BME280;11543;43.144;24.684;2023-01-16T03:35:33;98611.06;;;4.85;79.57
22753;BME280;11543;43.144;24.684;2023-01-16T03:38:07;98607.44;;;4.86;79.44
22753;BME280;11543;43.144;24.684;2023-01-16T03:40:36;98603.56;;;4.90;79.26
22753;BME280;11543;43.144;24.684;2023-01-16T03:43:11;98594.38;;;4.94;78.86
22753;BME280;11543;43.144;24.684;2023-01-16T03:46:03;98582.91;;;4.94;78.89
22753;BME280;11543;43.144;24.684;2023-01-16T03:48:41;98591.00;;;4.92;78.96
22753;BME280;11543;43.144;24.684;2023-01-16T03:51:19;98591.06;;;4.70;78.52
22753;BME280;11543;43.144;24.684;2023-01-16T03:53:59;98572.03;;;4.42;79.59
22753;BME280;11543;43.144;24.684;2023-01-16T03:56:35;98577.34;;;4.42;79.53
22753;BME280;11543;43.144;24.684;2023-01-16T03:59:02;98576.38;;;4.32;79.79
22753;BME280;11543;43.144;24.684;2023-01-16T04:02:03;98566.97;;;4.17;79.95
22753;BME280;11543;43.144;24.684;2023-01-16T04:07:19;98579.41;;;4.05;80.11
22753;BME280;11543;43.144;24.684;2023-01-16T04:09:50;98566.25;;;4.04;80.00
22753;BME280;11543;43.144;24.684;2023-01-16T04:12:21;98545.75;;;4.06;80.17
22753;BME280;11543;43.144;24.684;2023-01-16T04:14:54;98554.66;;;4.16;80.04
22753;BME280;11543;43.144;24.684;2023-01-16T04:17:22;98547.78;;;4.02;80.17
22753;BME280;11543;43.144;24.684;2023-01-16T04:19:48;98552.50;;;3.99;79.67
22753;BME280;11543;43.144;24.684;2023-01-16T04:22:27;98543.81;;;3.97;79.55
22753;BME280;11543;43.144;24.684;2023-01-16T04:24:55;98545.25;;;3.90;79.54
22753;BME280;11543;43.144;24.684;2023-01-16T04:27:21;98542.13;;;3.73;79.26
22753;BME280;11543;43.144;24.684;2023-01-16T04:29:47;98534.16;;;3.62;78.80
22753;BME280;11543;43.144;24.684;2023-01-16T04:32:13;98527.16;;;3.50;78.84
22753;BME280;11543;43.144;24.684;2023-01-16T04:34:38;98521.31;;;3.45;79.19
22753;BME280;11543;43.144;24.684;2023-01-16T04:37:04;98533.63;;;3.46;79.05
22753;BME280;11543;43.144;24.684;2023-01-16T04:39:30;98527.09;;;3.39;79.29
22753;BME280;11543;43.144;24.684;2023-01-16T04:41:56;98528.66;;;3.30;79.76
22753;BME280;11543;43.144;24.684;2023-01-16T04:44:22;98512.38;;;3.24;80.37
22753;BME280;11543;43.144;24.684;2023-01-16T04:46:48;98526.88;;;3.42;80.77
22753;BME280;11543;43.144;24.684;2023-01-16T04:49:13;98523.53;;;3.62;81.49
22753;BME280;11543;43.144;24.684;2023-01-16T04:51:39;98529.81;;;3.83;82.02
22753;BME280;11543;43.144;24.684;2023-01-16T04:54:06;98525.97;;;3.99;81.98
22753;BME280;11543;43.144;24.684;2023-01-16T04:56:33;98524.00;;;4.12;81.82
22753;BME280;11543;43.144;24.684;2023-01-16T04:59:00;98517.25;;;4.19;81.87
22753;BME280;11543;43.144;24.684;2023-01-16T05:01:25;98511.69;;;4.22;81.13
22753;BME280;11543;43.144;24.684;2023-01-16T05:03:50;98488.53;;;4.13;80.95
22753;BME280;11543;43.144;24.684;2023-01-16T05:06:16;98515.91;;;4.36;80.89
22753;BME280;11543;43.144;24.684;2023-01-16T05:08:42;98510.22;;;4.40;80.74
22753;BME280;11543;43.144;24.684;2023-01-16T05:11:08;98512.38;;;4.46;80.41
22753;BME280;11543;43.144;24.684;2023-01-16T05:13:33;98499.09;;;4.46;80.05
22753;BME280;11543;43.144;24.684;2023-01-16T05:15:59;98502.50;;;4.37;79.67
22753;BME280;11543;43.144;24.684;2023-01-16T05:18:27;98514.56;;;4.30;79.79
22753;BME280;11543;43.144;24.684;2023-01-16T05:20:52;98504.09;;;4.18;80.12
22753;BME280;11543;43.144;24.684;2023-01-16T05:23:18;98501.06;;;4.22;80.07
22753;BME280;11543;43.144;24.684;2023-01-16T05:25:43;98500.56;;;4.28;80.39
22753;BME280;11543;43.144;24.684;2023-01-16T05:28:09;98505.41;;;4.34;79.79
22753;BME280;11543;43.144;24.684;2023-01-16T05:30:36;98499.59;;;4.40;79.87
22753;BME280;11543;43.144;24.684;2023-01-16T05:33:02;98495.72;;;4.44;79.66
22753;BME280;11543;43.144;24.684;2023-01-16T05:35:30;98495.22;;;4.51;79.31
22753;BME280;11543;43.144;24.684;2023-01-16T05:37:55;98479.78;;;4.44;79.18
22753;BME280;11543;43.144;24.684;2023-01-16T05:40:21;98495.09;;;4.52;79.20
22753;BME280;11543;43.144;24.684;2023-01-16T05:42:46;98460.75;;;4.39;78.62
22753;BME280;11543;43.144;24.684;2023-01-16T05:45:13;98492.78;;;4.59;79.18
22753;BME280;11543;43.144;24.684;2023-01-16T05:47:39;98487.22;;;4.62;78.48
22753;BME280;11543;43.144;24.684;2023-01-16T05:50:04;98476.00;;;4.58;77.87
22753;BME280;11543;43.144;24.684;2023-01-16T05:52:30;98480.47;;;4.58;78.08
22753;BME280;11543;43.144;24.684;2023-01-16T05:54:55;98476.59;;;4.62;77.90
22753;BME280;11543;43.144;24.684;2023-01-16T05:57:21;98487.47;;;4.59;77.65
22753;BME280;11543;43.144;24.684;2023-01-16T05:59:50;98486.28;;;4.52;78.30
22753;BME280;11543;43.144;24.684;2023-01-16T06:02:17;98479.09;;;4.20;78.10
22753;BME280;11543;43.144;24.684;2023-01-16T06:04:42;98477.94;;;4.02;77.98
22753;BME280;11543;43.144;24.684;2023-01-16T06:07:08;98465.88;;;3.98;78.62
22753;BME280;11543;43.144;24.684;2023-01-16T06:09:34;98462.03;;;3.79;78.79
22753;BME280;11543;43.144;24.684;2023-01-16T06:11:59;98465.19;;;3.62;78.50
22753;BME280;11543;43.144;24.684;2023-01-16T06:14:25;98453.97;;;3.59;78.61
22753;BME280;11543;43.144;24.684;2023-01-16T06:16:50;98447.94;;;3.68;79.35
22753;BME280;11543;43.144;24.684;2023-01-16T06:19:17;98454.69;;;3.83;79.32
22753;BME280;11543;43.144;24.684;2023-01-16T06:21:42;98443.69;;;3.88;79.78
22753;BME280;11543;43.144;24.684;2023-01-16T06:24:08;98435.59;;;4.00;80.10
22753;BME280;11543;43.144;24.684;2023-01-16T06:26:33;98440.88;;;4.11;79.89
22753;BME280;11543;43.144;24.684;2023-01-16T06:28:59;98433.75;;;4.12;79.65
22753;BME280;11543;43.144;24.684;2023-01-16T06:31:24;98436.88;;;4.17;79.31
22753;BME280;11543;43.144;24.684;2023-01-16T06:33:50;98424.09;;;4.11;79.58
22753;BME280;11543;43.144;24.684;2023-01-16T06:36:15;98399.28;;;4.01;80.13
22753;BME280;11543;43.144;24.684;2023-01-16T06:38:41;98418.03;;;4.20;80.02
22753;BME280;11543;43.144;24.684;2023-01-16T06:41:07;98411.31;;;4.16;79.64
22753;BME280;11543;43.144;24.684;2023-01-16T06:43:32;98413.63;;;3.98;79.30
22753;BME280;11543;43.144;24.684;2023-01-16T06:45:57;98403.44;;;3.82;79.30
22753;BME280;11543;43.144;24.684;2023-01-16T06:48:26;98397.16;;;3.72;80.20
22753;BME280;11543;43.144;24.684;2023-01-16T06:50:52;98389.44;;;3.80;80.22
22753;BME280;11543;43.144;24.684;2023-01-16T06:53:17;98377.13;;;3.79;80.74
22753;BME280;11543;43.144;24.684;2023-01-16T06:55:43;98382.44;;;3.79;81.09
22753;BME280;11543;43.144;24.684;2023-01-16T06:58:10;98379.81;;;3.68;80.05
22753;BME280;11543;43.144;24.684;2023-01-16T07:00:36;98406.59;;;3.65;79.36
22753;BME280;11543;43.144;24.684;2023-01-16T07:03:03;98404.66;;;3.45;79.08
22753;BME280;11543;43.144;24.684;2023-01-16T07:05:29;98399.09;;;3.26;78.92
22753;BME280;11543;43.144;24.684;2023-01-16T07:07:55;98398.84;;;3.06;78.80
22753;BME280;11543;43.144;24.684;2023-01-16T07:10:22;98406.22;;;3.14;79.40
22753;BME280;11543;43.144;24.684;2023-01-16T07:12:48;98380.66;;;3.02;79.83
22753;BME280;11543;43.144;24.684;2023-01-16T07:15:14;98402.25;;;3.42;81.08
22753;BME280;11543;43.144;24.684;2023-01-16T07:17:58;98390.56;;;3.56;81.83
22753;BME280;11543;43.144;24.684;2023-01-16T07:20:51;98393.91;;;3.80;81.74
22753;BME280;11543;43.144;24.684;2023-01-16T07:23:38;98398.56;;;3.99;81.96
22753;BME280;11543;43.144;24.684;2023-01-16T07:26:06;98384.44;;;3.98;81.70
22753;BME280;11543;43.144;24.684;2023-01-16T07:28:34;98394.91;;;4.11;81.76
22753;BME280;11543;43.144;24.684;2023-01-16T07:31:00;98383.06;;;4.15;81.72
22753;BME280;11543;43.144;24.684;2023-01-16T07:33:31;98408.84;;;4.35;81.66
22753;BME280;11543;43.144;24.684;2023-01-16T07:35:56;98388.31;;;4.37;81.23
22753;BME280;11543;43.144;24.684;2023-01-16T07:38:22;98400.69;;;4.48;81.01
22753;BME280;11543;43.144;24.684;2023-01-16T07:40:47;98377.91;;;4.45;80.81
22753;BME280;11543;43.144;24.684;2023-01-16T07:43:13;98371.56;;;4.58;81.05
22753;BME280;11543;43.144;24.684;2023-01-16T07:45:38;98380.38;;;4.79;80.94
22753;BME280;11543;43.144;24.684;2023-01-16T07:48:04;98387.28;;;4.91;80.71
22753;BME280;11543;43.144;24.684;2023-01-16T07:50:29;98380.03;;;4.93;80.00
22753;BME280;11543;43.144;24.684;2023-01-16T07:52:55;98384.56;;;5.02;80.49
22753;BME280;11543;43.144;24.684;2023-01-16T07:55:21;98387.94;;;5.04;80.15
22753;BME280;11543;43.144;24.684;2023-01-16T07:57:46;98372.81;;;5.05;80.09
22753;BME280;11543;43.144;24.684;2023-01-16T08:00:13;98357.97;;;5.02;79.36
22753;BME280;11543;43.144;24.684;2023-01-16T08:02:39;98386.38;;;5.23;79.40
22753;BME280;11543;43.144;24.684;2023-01-16T08:05:06;98384.44;;;5.25;79.63
22753;BME280;11543;43.144;24.684;2023-01-16T08:07:31;98372.38;;;5.21;79.18
22753;BME280;11543;43.144;24.684;2023-01-16T08:09:57;98388.06;;;5.24;79.50
22753;BME280;11543;43.144;24.684;2023-01-16T08:12:22;98378.44;;;5.11;79.70
22753;BME280;11543;43.144;24.684;2023-01-16T08:14:48;98389.63;;;5.05;79.88
22753;BME280;11543;43.144;24.684;2023-01-16T08:17:13;98379.19;;;4.93;80.05
22753;BME280;11543;43.144;24.684;2023-01-16T08:19:38;98366.03;;;4.91;80.54
22753;BME280;11543;43.144;24.684;2023-01-16T08:22:04;98377.03;;;5.07;80.44
22753;BME280;11543;43.144;24.684;2023-01-16T08:24:30;98374.81;;;5.12;80.72
22753;BME280;11543;43.144;24.684;2023-01-16T08:26:56;98371.25;;;5.02;80.63
22753;BME280;11543;43.144;24.684;2023-01-16T08:29:22;98375.66;;;5.13;80.43
22753;BME280;11543;43.144;24.684;2023-01-16T08:31:47;98361.66;;;5.11;80.43
22753;BME280;11543;43.144;24.684;2023-01-16T08:34:13;98376.88;;;5.30;80.43
22753;BME280;11543;43.144;24.684;2023-01-16T08:36:38;98335.03;;;5.01;80.10
22753;BME280;11543;43.144;24.684;2023-01-16T08:39:04;98370.03;;;5.06;80.35
22753;BME280;11543;43.144;24.684;2023-01-16T08:41:29;98374.78;;;5.03;80.31
22753;BME280;11543;43.144;24.684;2023-01-16T08:44:13;98364.94;;;4.94;80.25
22753;BME280;11543;43.144;24.684;2023-01-16T08:47:03;98364.09;;;4.93;80.84
22753;BME280;11543;43.144;24.684;2023-01-16T08:49:49;98381.09;;;5.11;81.42
22753;BME280;11543;43.144;24.684;2023-01-16T08:52:35;98374.56;;;5.16;81.18
22753;BME280;11543;43.144;24.684;2023-01-16T08:55:02;98356.03;;;5.04;81.40
22753;BME280;11543;43.144;24.684;2023-01-16T08:57:28;98357.03;;;5.13;81.98
22753;BME280;11543;43.144;24.684;2023-01-16T08:59:55;98366.50;;;5.27;81.56
22753;BME280;11543;43.144;24.684;2023-01-16T09:02:20;98358.09;;;5.22;81.63
22753;BME280;11543;43.144;24.684;2023-01-16T09:04:46;98369.34;;;5.35;81.80
22753;BME280;11543;43.144;24.684;2023-01-16T09:07:13;98368.19;;;5.28;81.32
22753;BME280;11543;43.144;24.684;2023-01-16T09:09:39;98356.28;;;5.22;81.66
22753;BME280;11543;43.144;24.684;2023-01-16T09:12:10;98348.31;;;5.22;81.55
22753;BME280;11543;43.144;24.684;2023-01-16T09:14:54;98345.84;;;5.40;81.95
22753;BME280;11543;43.144;24.684;2023-01-16T09:17:22;98347.56;;;5.51;81.85
22753;BME280;11543;43.144;24.684;2023-01-16T09:19:47;98333.72;;;5.57;81.73
22753;BME280;11543;43.144;24.684;2023-01-16T09:22:13;98334.72;;;5.75;82.30
22753;BME280;11543;43.144;24.684;2023-01-16T09:24:38;98313.31;;;5.86;81.83
22753;BME280;11543;43.144;24.684;2023-01-16T09:27:04;98332.59;;;6.09;81.34
22753;BME280;11543;43.144;24.684;2023-01-16T09:29:31;98323.91;;;6.26;80.97
22753;BME280;11543;43.144;24.684;2023-01-16T09:31:57;98316.88;;;6.45;80.76
22753;BME280;11543;43.144;24.684;2023-01-16T09:34:23;98307.03;;;6.55;80.63
22753;BME280;11543;43.144;24.684;2023-01-16T09:36:48;98298.84;;;6.76;80.20
22753;BME280;11543;43.144;24.684;2023-01-16T09:39:14;98295.03;;;6.88;79.98
22753;BME280;11543;43.144;24.684;2023-01-16T09:42:01;98288.72;;;6.98;79.49
22753;BME280;11543;43.144;24.684;2023-01-16T09:44:50;98283.28;;;7.18;79.26
22753;BME280;11543;43.144;24.684;2023-01-16T09:47:21;98293.19;;;7.35;79.12
22753;BME280;11543;43.144;24.684;2023-01-16T09:52:52;98276.38;;;7.52;78.91
22753;BME280;11543;43.144;24.684;2023-01-16T10:25:30;98220.88;;;9.13;74.63
22753;BME280;11543;43.144;24.684;2023-01-16T10:28:07;98217.19;;;9.14;75.02
22753;BME280;11543;43.144;24.684;2023-01-16T10:30:44;98216.56;;;9.20;74.48
22753;BME280;11543;43.144;24.684;2023-01-16T10:33:17;98217.56;;;9.19;74.49
22753;BME280;11543;43.144;24.684;2023-01-16T10:35:47;98210.22;;;9.29;74.53
22753;BME280;11543;43.144;24.684;2023-01-16T10:41:20;98208.09;;;9.41;74.33
22753;BME280;11543;43.144;24.684;2023-01-16T10:44:31;98202.91;;;9.47;74.23
22753;BME280;11543;43.144;24.684;2023-01-16T10:47:17;98191.03;;;9.50;73.74
22753;BME280;11543;43.144;24.684;2023-01-16T10:50:03;98188.25;;;9.60;73.92
22753;BME280;11543;43.144;24.684;2023-01-16T10:52:30;98174.53;;;9.63;73.52
22753;BME280;11543;43.144;24.684;2023-01-16T10:54:56;98166.84;;;9.68;73.60
22753;BME280;11543;43.144;24.684;2023-01-16T10:57:23;98168.19;;;9.72;73.62
22753;BME280;11543;43.144;24.684;2023-01-16T10:59:51;98168.50;;;9.69;74.03
22753;BME280;11543;43.144;24.684;2023-01-16T11:02:26;98167.00;;;9.74;74.08
22753;BME280;11543;43.144;24.684;2023-01-16T11:04:52;98158.97;;;9.82;73.98
22753;BME280;11543;43.144;24.684;2023-01-16T11:07:21;98151.78;;;9.91;73.83
22753;BME280;11543;43.144;24.684;2023-01-16T11:09:48;98170.19;;;10.02;73.72
22753;BME280;11543;43.144;24.684;2023-01-16T11:12:32;98170.19;;;10.10;73.92
22753;BME280;11543;43.144;24.684;2023-01-16T11:15:21;98168.84;;;10.14;74.53
22753;BME280;11543;43.144;24.684;2023-01-16T11:18:19;98165.34;;;10.22;75.32
22753;BME280;11543;43.144;24.684;2023-01-16T11:20:56;98165.84;;;10.26;76.14
22753;BME280;11543;43.144;24.684;2023-01-16T11:23:25;98167.53;;;10.27;76.13
22753;BME280;11543;43.144;24.684;2023-01-16T11:25:54;98152.44;;;10.26;76.26
22753;BME280;11543;43.144;24.684;2023-01-16T11:28:27;98149.41;;;10.29;76.09
22753;BME280;11543;43.144;24.684;2023-01-16T11:30:55;98146.06;;;10.27;76.26
22753;BME280;11543;43.144;24.684;2023-01-16T11:33:27;98146.06;;;10.27;75.92
22753;BME280;11543;43.144;24.684;2023-01-16T11:35:58;98146.06;;;10.27;76.62
22753;BME280;11543;43.144;24.684;2023-01-16T11:38:27;98148.25;;;10.31;76.42
22753;BME280;11543;43.144;24.684;2023-01-16T11:40:59;98138.34;;;10.32;76.16
22753;BME280;11543;43.144;24.684;2023-01-16T11:43:26;98134.31;;;10.36;76.07
22753;BME280;11543;43.144;24.684;2023-01-16T11:49:03;98135.34;;;10.43;75.93
22753;BME280;11543;43.144;24.684;2023-01-16T11:51:32;98129.81;;;10.44;76.11
22753;BME280;11543;43.144;24.684;2023-01-16T11:53:59;98117.91;;;10.47;76.32
22753;BME280;11543;43.144;24.684;2023-01-16T11:56:38;98113.19;;;10.49;76.36
22753;BME280;11543;43.144;24.684;2023-01-16T12:11:13;98078.94;;;10.67;75.97
22753;BME280;11543;43.144;24.684;2023-01-16T12:23:08;98074.72;;;10.73;75.87
22753;BME280;11543;43.144;24.684;2023-01-16T12:25:54;98069.00;;;10.76;75.51
22753;BME280;11543;43.144;24.684;2023-01-16T12:31:05;98054.72;;;10.83;75.63
22753;BME280;11543;43.144;24.684;2023-01-16T12:33:53;98063.06;;;10.89;75.65
22753;BME280;11543;43.144;24.684;2023-01-16T12:41:47;98039.53;;;10.99;75.35
22753;BME280;11543;43.144;24.684;2023-01-16T12:44:48;98042.16;;;11.07;75.56
22753;BME280;11543;43.144;24.684;2023-01-16T12:52:46;98029.78;;;11.29;75.66
22753;BME280;11543;43.144;24.684;2023-01-16T12:55:25;98027.38;;;11.34;75.46
22753;BME280;11543;43.144;24.684;2023-01-16T12:58:18;98022.84;;;11.34;75.48
22753;BME280;11543;43.144;24.684;2023-01-16T13:03:21;98014.38;;;11.45;75.46
22753;BME280;11543;43.144;24.684;2023-01-16T13:05:51;98015.38;;;11.44;75.36
22753;BME280;11543;43.144;24.684;2023-01-16T13:08:37;98028.28;;;11.49;75.25
22753;BME280;11543;43.144;24.684;2023-01-16T13:11:12;98023.44;;;11.44;75.31
22753;BME280;11543;43.144;24.684;2023-01-16T13:14:00;98026.78;;;11.46;74.86
22753;BME280;11543;43.144;24.684;2023-01-16T13:16:31;98018.44;;;11.41;74.54
22753;BME280;11543;43.144;24.684;2023-01-16T13:19:03;98013.06;;;11.41;74.34
22753;BME280;11543;43.144;24.684;2023-01-16T13:21:39;97997.97;;;11.40;73.51
22753;BME280;11543;43.144;24.684;2023-01-16T13:24:26;98002.22;;;11.35;73.76
22753;BME280;11543;43.144;24.684;2023-01-16T13:26:57;97993.50;;;11.33;73.57
22753;BME280;11543;43.144;24.684;2023-01-16T13:29:39;97996.19;;;11.33;73.30
22753;BME280;11543;43.144;24.684;2023-01-16T13:32:28;97994.34;;;11.33;73.82
22753;BME280;11543;43.144;24.684;2023-01-16T13:41:20;97984.63;;;11.24;72.84
22753;BME280;11543;43.144;24.684;2023-01-16T13:46:37;97964.25;;;11.15;72.38
22753;BME280;11543;43.144;24.684;2023-01-16T13:49:04;97967.94;;;11.14;72.04
22753;BME280;11543;43.144;24.684;2023-01-16T13:51:31;97976.66;;;11.16;72.36
22753;BME280;11543;43.144;24.684;2023-01-16T13:54:20;97969.31;;;11.10;72.53
22753;BME280;11543;43.144;24.684;2023-01-16T13:56:56;97970.69;;;11.06;72.63
22753;BME280;11543;43.144;24.684;2023-01-16T13:59:38;97959.38;;;10.96;73.11
22753;BME280;11543;43.144;24.684;2023-01-16T14:08:27;97956.50;;;10.74;72.89
22753;BME280;11543;43.144;24.684;2023-01-16T14:13:39;97938.59;;;10.44;72.80
22753;BME280;11543;43.144;24.684;2023-01-16T14:19:50;97954.34;;;10.39;73.33
22753;BME280;11543;43.144;24.684;2023-01-16T14:21:50;97946.03;;;10.26;73.80
22753;BME280;11543;43.144;24.684;2023-01-16T14:24:43;97950.38;;;10.18;74.49
22753;BME280;11543;43.144;24.684;2023-01-16T14:27:48;97942.34;;;10.18;74.68
22753;BME280;11543;43.144;24.684;2023-01-16T14:30:20;97946.38;;;10.23;74.65
22753;BME280;11543;43.144;24.684;2023-01-16T14:32:50;97926.94;;;10.20;74.81
22753;BME280;11543;43.144;24.684;2023-01-16T14:35:51;97925.59;;;10.16;74.29
22753;BME280;11543;43.144;24.684;2023-01-16T14:38:22;97924.97;;;10.06;74.41
22753;BME280;11543;43.144;24.684;2023-01-16T14:41:15;97915.09;;;10.07;74.99
22753;BME280;11543;43.144;24.684;2023-01-16T14:47:05;97901.81;;;10.21;74.80
22753;BME280;11543;43.144;24.684;2023-01-16T14:50:05;97902.13;;;10.27;74.61
22753;BME280;11543;43.144;24.684;2023-01-16T14:52:57;97900.34;;;10.11;74.70
22753;BME280;11543;43.144;24.684;2023-01-16T14:58:08;97897.22;;;9.99;74.52
22753;BME280;11543;43.144;24.684;2023-01-16T15:00:37;97898.56;;;9.95;74.87
22753;BME280;11543;43.144;24.684;2023-01-16T15:03:10;97894.91;;;9.88;74.59
22753;BME280;11543;43.144;24.684;2023-01-16T15:05:46;97882.25;;;9.74;75.05
22753;BME280;11543;43.144;24.684;2023-01-16T15:08:17;97899.00;;;9.68;75.08
22753;BME280;11543;43.144;24.684;2023-01-16T15:10:46;97884.81;;;9.59;75.30
22753;BME280;11543;43.144;24.684;2023-01-16T15:15:46;97896.03;;;9.46;75.57
22753;BME280;11543;43.144;24.684;2023-01-16T15:18:13;97895.72;;;9.33;76.24
22753;BME280;11543;43.144;24.684;2023-01-16T15:20:59;97896.72;;;9.40;76.06
22753;BME280;11543;43.144;24.684;2023-01-16T15:23:44;97905.59;;;9.33;75.94
22753;BME280;11543;43.144;24.684;2023-01-16T15:26:19;97892.72;;;9.36;76.20
22753;BME280;11543;43.144;24.684;2023-01-16T15:28:54;97888.34;;;9.43;76.37
22753;BME280;11543;43.144;24.684;2023-01-16T15:31:34;97887.00;;;9.39;76.13
22753;BME280;11543;43.144;24.684;2023-01-16T15:36:41;97876.59;;;9.52;75.95
22753;BME280;11543;43.144;24.684;2023-01-16T15:39:31;97877.59;;;9.51;75.74
22753;BME280;11543;43.144;24.684;2023-01-16T15:42:04;97893.22;;;9.32;75.66
22753;BME280;11543;43.144;24.684;2023-01-16T15:44:51;97888.72;;;9.32;75.99
22753;BME280;11543;43.144;24.684;2023-01-16T15:50:55;97881.34;;;9.34;75.61
22753;BME280;11543;43.144;24.684;2023-01-16T15:53:31;97888.56;;;9.17;75.93
22753;BME280;11543;43.144;24.684;2023-01-16T15:56:04;97887.06;;;9.23;76.05
22753;BME280;11543;43.144;24.684;2023-01-16T15:58:29;97883.19;;;9.25;76.01
22753;BME280;11543;43.144;24.684;2023-01-16T16:01:01;97875.34;;;9.24;76.15